createdAt,value
2019-01-25T00:00:26.129Z,99888.16
2019-01-25T00:03:30.972Z,99881.86
2019-01-25T00:06:34.212Z,99893.42
2019-01-25T00:09:37.129Z,99902.97
2019-01-25T00:12:40.443Z,99900.64
2019-01-25T00:15:43.372Z,99901.37
2019-01-25T00:18:46.274Z,99905.70
2019-01-25T00:21:49.975Z,99902.23
2019-01-25T00:24:53.266Z,99891.34
2019-01-25T00:27:56.189Z,99884.81
2019-01-25T00:30:59.109Z,99879.67
2019-01-25T00:34:02.439Z,99887.00
2019-01-25T00:37:05.359Z,99884.25
2019-01-25T00:40:11.400Z,99886.91
2019-01-25T00:43:15.832Z,99886.30
2019-01-25T00:46:19.106Z,99888.71
2019-01-25T00:49:22.048Z,99883.83
2019-01-25T00:52:24.962Z,99885.92
2019-01-25T00:55:27.891Z,99883.64
2019-01-25T00:58:30.867Z,99875.08
2019-01-25T01:01:34.874Z,99874.71
2019-01-25T01:04:38.670Z,99877.50
2019-01-25T01:07:41.828Z,99878.97
2019-01-25T01:10:44.759Z,99879.19
2019-01-25T01:13:47.672Z,99872.34
2019-01-25T01:16:50.624Z,99876.64
2019-01-25T01:19:54.027Z,99876.23
2019-01-25T01:22:57.412Z,99874.34
2019-01-25T01:26:00.318Z,99872.27
2019-01-25T01:29:03.250Z,99881.11
2019-01-25T01:32:06.162Z,99875.82
2019-01-25T01:35:09.270Z,99877.30
2019-01-25T01:38:12.598Z,99878.14
2019-01-25T01:41:15.541Z,99886.53
2019-01-25T01:44:18.445Z,99882.68
2019-01-25T01:47:21.374Z,99891.30
2019-01-25T01:50:24.302Z,99889.70
2019-01-25T01:53:28.751Z,99901.94
2019-01-25T01:56:32.038Z,99904.16
2019-01-25T01:59:35.950Z,99909.34
2019-01-25T02:02:38.868Z,99906.50
2019-01-25T02:05:41.834Z,99906.86
2019-01-25T02:08:44.754Z,99902.36
2019-01-25T02:11:47.690Z,99910.45
2019-01-25T02:14:50.993Z,99904.39
2019-01-25T02:17:54.786Z,99895.63
2019-01-25T02:20:58.184Z,99894.84
2019-01-25T02:24:01.440Z,99889.85
2019-01-25T02:27:04.735Z,99887.63
2019-01-25T02:30:12.216Z,99888.61
2019-01-25T02:33:15.499Z,99883.84
2019-01-25T02:36:18.435Z,99884.71
2019-01-25T02:39:21.355Z,99879.95
2019-01-25T02:42:24.578Z,99882.59
2019-01-25T02:45:27.790Z,99873.46
2019-01-25T02:48:30.717Z,99888.30
2019-01-25T02:51:33.625Z,99886.20
2019-01-25T02:54:36.546Z,99894.97
2019-01-25T02:57:39.544Z,99893.05
2019-01-25T03:00:42.454Z,99891.76
2019-01-25T03:03:45.702Z,99886.20
2019-01-25T03:06:48.615Z,99887.55
2019-01-25T03:09:51.531Z,99882.88
2019-01-25T03:12:54.427Z,99882.00
2019-01-25T03:15:57.673Z,99884.59
2019-01-25T03:19:00.572Z,99881.72
2019-01-25T03:22:04.043Z,99892.65
2019-01-25T03:25:09.892Z,99889.68
2019-01-25T03:28:12.896Z,99891.03
2019-01-25T03:31:16.230Z,99887.50
2019-01-25T03:34:19.537Z,99896.36
2019-01-25T03:37:22.901Z,99892.84
2019-01-25T03:40:28.662Z,99892.42
2019-01-25T03:43:31.581Z,99892.98
2019-01-25T03:46:34.471Z,99889.52
2019-01-25T03:49:38.779Z,99884.31
2019-01-25T03:52:41.676Z,99885.56
2019-01-25T03:55:44.593Z,99898.08
2019-01-25T03:58:47.507Z,99896.41
2019-01-25T04:01:50.432Z,99891.64
2019-01-25T04:04:55.760Z,99895.01
2019-01-25T04:07:58.783Z,99894.45
2019-01-25T04:11:03.817Z,99891.45
2019-01-25T04:14:06.530Z,99890.74
2019-01-25T04:17:09.741Z,99894.14
2019-01-25T04:20:14.345Z,99895.23
2019-01-25T04:23:17.264Z,99900.89
2019-01-25T04:26:20.239Z,99897.05
2019-01-25T04:29:23.451Z,99897.24
2019-01-25T04:32:26.411Z,99897.98
2019-01-25T04:35:30.005Z,99898.44
2019-01-25T04:38:33.748Z,99904.83
2019-01-25T04:41:36.752Z,99899.23
2019-01-25T04:44:39.754Z,99894.97
2019-01-25T04:47:42.928Z,99904.24
2019-01-25T04:50:45.869Z,99887.33
2019-01-25T04:53:48.786Z,99884.22
2019-01-25T04:56:51.775Z,99884.08
2019-01-25T04:59:54.774Z,99880.28
2019-01-25T05:02:58.842Z,99886.41
2019-01-25T05:06:02.039Z,99891.69
2019-01-25T05:09:08.244Z,99887.98
2019-01-25T05:12:11.148Z,99891.44
2019-01-25T05:15:14.164Z,99891.39
2019-01-25T05:18:17.299Z,99894.70
2019-01-25T05:21:27.033Z,99901.23
2019-01-25T05:24:30.409Z,99893.39
2019-01-25T05:27:33.675Z,99896.00
2019-01-25T05:30:36.612Z,99903.41
2019-01-25T05:33:39.517Z,99906.83
2019-01-25T05:36:42.823Z,99909.84
2019-01-25T05:39:45.939Z,99909.84
2019-01-25T05:42:48.846Z,99914.42
2019-01-25T05:45:52.075Z,99922.02
2019-01-25T05:48:54.967Z,99927.30
2019-01-25T05:51:57.876Z,99930.91
2019-01-25T05:55:01.142Z,99927.81
2019-01-25T05:58:06.502Z,99930.57
2019-01-25T06:01:09.451Z,99932.80
2019-01-25T06:04:12.355Z,99927.25
2019-01-25T06:07:15.285Z,99928.64
2019-01-25T06:10:18.204Z,99929.11
2019-01-25T06:13:21.204Z,99929.42
2019-01-25T06:16:24.104Z,99933.78
2019-01-25T06:19:28.039Z,99933.88
2019-01-25T06:22:31.302Z,99938.75
2019-01-25T06:25:34.226Z,99945.09
2019-01-25T06:28:37.534Z,99945.29
2019-01-25T06:31:40.431Z,99948.50
2019-01-25T06:34:44.471Z,99940.73
2019-01-25T06:37:47.374Z,99945.09
2019-01-25T06:40:50.327Z,99938.50
2019-01-25T06:43:53.235Z,99932.94
2019-01-25T06:46:56.142Z,99937.47
2019-01-25T06:49:59.078Z,99939.33
2019-01-25T06:53:01.974Z,99938.92
2019-01-25T06:56:05.343Z,99932.28
2019-01-25T06:59:16.646Z,99932.89
2019-01-25T07:02:24.465Z,99940.27
2019-01-25T07:05:27.687Z,99946.95
2019-01-25T07:08:30.582Z,99942.86
2019-01-25T07:11:33.854Z,99952.70
2019-01-25T07:14:37.149Z,99952.03
2019-01-25T07:17:40.395Z,99951.30
2019-01-25T07:20:43.307Z,99949.17
2019-01-25T07:23:46.572Z,99946.11
2019-01-25T07:26:49.469Z,99952.09
2019-01-25T07:29:52.388Z,99955.23
2019-01-25T07:32:56.121Z,99956.17
2019-01-25T07:35:59.530Z,99963.44
2019-01-25T07:39:21.489Z,99957.16
2019-01-25T07:42:25.759Z,99956.98
2019-01-25T07:45:28.698Z,99946.33
2019-01-25T07:48:31.977Z,99946.92
2019-01-25T07:51:35.232Z,99953.92
2019-01-25T07:54:38.195Z,99953.50
2019-01-25T07:57:41.159Z,99957.58
2019-01-25T08:00:44.075Z,99954.94
2019-01-25T08:03:47.059Z,99958.42
2019-01-25T08:06:49.976Z,99963.05
2019-01-25T08:09:52.892Z,99960.88
2019-01-25T08:12:55.969Z,99954.52
2019-01-25T08:15:58.959Z,99953.91
2019-01-25T08:19:01.866Z,99952.11
2019-01-25T08:22:04.795Z,99951.98
2019-01-25T08:25:07.889Z,99952.86
2019-01-25T08:28:11.016Z,99954.57
2019-01-25T08:31:14.482Z,99957.31
2019-01-25T08:34:17.548Z,99959.17
2019-01-25T08:37:20.503Z,99962.97
2019-01-25T08:40:24.076Z,99961.77
2019-01-25T08:43:29.084Z,99964.35
2019-01-25T08:46:32.395Z,99961.81
2019-01-25T08:49:35.549Z,99966.95
2019-01-25T08:52:38.533Z,99955.73
2019-01-25T08:55:41.959Z,99960.23
2019-01-25T08:58:45.339Z,99960.55
2019-01-25T09:01:48.688Z,99963.09
2019-01-25T09:04:52.298Z,99968.38
2019-01-25T09:07:55.247Z,99971.45
2019-01-25T09:10:58.156Z,99978.34
2019-01-25T09:14:01.123Z,99987.77
2019-01-25T09:17:04.896Z,99985.13
2019-01-25T09:20:14.558Z,99986.80
2019-01-25T09:23:16.986Z,99985.59
2019-01-25T09:26:19.909Z,99985.30
2019-01-25T09:29:22.831Z,99985.31
2019-01-25T09:32:25.887Z,99983.50
2019-01-25T09:35:29.859Z,99987.39
2019-01-25T09:38:34.219Z,99982.16
2019-01-25T09:41:37.654Z,99980.05
2019-01-25T09:44:41.778Z,99982.31
2019-01-25T09:47:44.684Z,99984.56
2019-01-25T09:50:52.723Z,99987.20
2019-01-25T09:53:53.571Z,99994.49
2019-01-25T09:56:56.774Z,99997.41
2019-01-25T09:59:59.696Z,99985.99
2019-01-25T10:03:03.047Z,99981.30
2019-01-25T10:06:05.980Z,99981.77
2019-01-25T10:09:09.237Z,99974.16
2019-01-25T10:12:12.159Z,99975.64
2019-01-25T10:15:18.693Z,99978.53
2019-01-25T10:18:24.803Z,99971.17
2019-01-25T10:21:26.432Z,99963.33
2019-01-25T10:24:29.644Z,99954.28
2019-01-25T10:27:32.571Z,99937.72
2019-01-25T10:30:35.505Z,99939.64
2019-01-25T10:33:38.530Z,99927.62
2019-01-25T10:36:42.757Z,99929.67
2019-01-25T10:39:46.023Z,99926.93
2019-01-25T10:42:53.450Z,99922.11
2019-01-25T10:45:54.447Z,99919.75
2019-01-25T10:48:57.647Z,99918.75
2019-01-25T10:52:00.554Z,99938.05
2019-01-25T10:55:05.381Z,99928.88
2019-01-25T10:58:09.204Z,99930.45
2019-01-25T11:01:12.544Z,99918.67
2019-01-25T11:04:15.784Z,99911.47
2019-01-25T11:07:18.690Z,99911.13
2019-01-25T11:10:22.091Z,99906.08
2019-01-25T11:13:25.020Z,99907.53
2019-01-25T11:16:27.947Z,99902.93
2019-01-25T11:19:30.871Z,99892.08
2019-01-25T11:22:33.786Z,99882.91
2019-01-25T11:25:38.775Z,99883.02
2019-01-25T11:28:42.428Z,99883.53
2019-01-25T11:31:45.709Z,99875.98
2019-01-25T11:34:48.635Z,99882.58
2019-01-25T11:37:52.462Z,99879.17
2019-01-25T11:40:55.746Z,99877.81
2019-01-25T11:43:58.679Z,99883.16
2019-01-25T11:47:01.632Z,99883.19
2019-01-25T11:50:06.859Z,99888.70
2019-01-25T11:53:09.858Z,99885.77
2019-01-25T11:56:15.017Z,99886.03
2019-01-25T11:59:17.932Z,99875.09
2019-01-25T12:02:21.110Z,99880.11
2019-01-25T12:05:24.546Z,99892.52
2019-01-25T12:08:27.675Z,99884.05
2019-01-25T12:11:30.596Z,99891.75
2019-01-25T12:14:33.799Z,99888.47
2019-01-25T12:17:37.347Z,99893.94
2019-01-25T12:20:40.263Z,99891.66
2019-01-25T12:23:43.293Z,99893.68
2019-01-25T12:26:46.603Z,99895.83
2019-01-25T12:29:50.626Z,99906.27
2019-01-25T12:32:53.534Z,99902.44
2019-01-25T12:35:56.793Z,99888.55
2019-01-25T12:39:00.075Z,99892.11
2019-01-25T12:42:03.491Z,99883.62
2019-01-25T12:45:11.022Z,99876.44
2019-01-25T12:48:15.100Z,99879.80
2019-01-25T12:51:27.208Z,99878.02
2019-01-25T12:54:30.559Z,99876.14
2019-01-25T12:57:33.467Z,99873.71
2019-01-25T13:00:39.445Z,99871.83
2019-01-25T13:03:42.392Z,99860.28
2019-01-25T13:06:46.559Z,99852.51
2019-01-25T13:09:50.139Z,99846.16
2019-01-25T13:12:53.054Z,99848.34
2019-01-25T13:15:56.298Z,99833.20
2019-01-25T13:18:59.251Z,99846.25
2019-01-25T13:22:02.526Z,99833.92
2019-01-25T13:25:06.757Z,99839.58
2019-01-25T13:28:09.669Z,99827.04
2019-01-25T13:31:12.958Z,99824.61
2019-01-25T13:34:15.981Z,99831.88
2019-01-25T13:37:19.223Z,99831.14
2019-01-25T13:40:23.331Z,99831.17
2019-01-25T13:43:26.812Z,99823.82
2019-01-25T13:46:29.731Z,99815.64
2019-01-25T13:49:33.083Z,99802.28
2019-01-25T13:52:36.648Z,99793.33
2019-01-25T13:55:39.945Z,99786.19
2019-01-25T13:58:42.851Z,99784.94
2019-01-25T14:01:45.787Z,99780.82
2019-01-25T14:04:49.098Z,99786.82
2019-01-25T14:07:52.492Z,99784.12
2019-01-25T14:10:56.770Z,99772.91
2019-01-25T14:13:59.699Z,99778.18
2019-01-25T14:17:02.610Z,99767.08
2019-01-25T14:20:09.311Z,99760.61
2019-01-25T14:23:12.588Z,99754.95
2019-01-25T14:26:15.830Z,99756.66
2019-01-25T14:29:19.522Z,99754.48
2019-01-25T14:32:23.204Z,99749.31
2019-01-25T14:35:26.168Z,99744.51
2019-01-25T14:38:29.818Z,99726.46
2019-01-25T14:41:33.107Z,99719.34
2019-01-25T14:44:36.156Z,99710.86
2019-01-25T14:47:39.097Z,99715.67
2019-01-25T14:50:43.472Z,99717.86
2019-01-25T14:53:50.807Z,99720.55
2019-01-25T14:56:51.552Z,99713.14
2019-01-25T14:59:54.808Z,99723.22
2019-01-25T15:02:57.743Z,99717.35
2019-01-25T15:06:01.026Z,99705.23
2019-01-25T15:09:08.711Z,99706.03
2019-01-25T15:12:11.641Z,99704.77
2019-01-25T15:15:14.674Z,99710.33
2019-01-25T15:18:17.581Z,99707.66
2019-01-25T15:21:21.889Z,99705.06
2019-01-25T15:24:24.822Z,99700.70
2019-01-25T15:27:27.731Z,99704.02
2019-01-25T15:30:31.855Z,99699.70
2019-01-25T15:33:35.179Z,99689.20
2019-01-25T15:36:38.084Z,99688.83
2019-01-25T15:39:41.376Z,99679.70
2019-01-25T15:42:44.308Z,99674.09
2019-01-25T15:45:47.638Z,99678.77
2019-01-25T15:48:51.640Z,99687.00
2019-01-25T15:51:54.991Z,99683.83
2019-01-25T15:54:57.888Z,99684.35
2019-01-25T15:58:00.918Z,99686.38
2019-01-25T16:01:04.141Z,99683.40
2019-01-25T16:04:07.439Z,99681.80
2019-01-25T16:07:10.332Z,99674.78
2019-01-25T16:10:16.126Z,99679.63
2019-01-25T16:13:19.067Z,99683.41
2019-01-25T16:16:22.032Z,99683.03
2019-01-25T16:19:25.034Z,99676.53
2019-01-25T16:22:27.966Z,99677.47
2019-01-25T16:25:33.544Z,99665.92
2019-01-25T16:28:36.780Z,99664.38
2019-01-25T16:31:40.160Z,99664.58
2019-01-25T16:34:43.347Z,99664.25
2019-01-25T16:37:46.292Z,99660.44
2019-01-25T16:40:49.529Z,99661.50
2019-01-25T16:43:52.449Z,99656.57
2019-01-25T16:46:55.706Z,99636.60
2019-01-25T16:49:58.940Z,99639.10
2019-01-25T16:53:01.896Z,99639.46
2019-01-25T16:56:05.053Z,99634.80
2019-01-25T16:59:07.975Z,99638.23
2019-01-25T17:02:10.912Z,99638.59
2019-01-25T17:05:14.355Z,99634.68
2019-01-25T17:08:17.387Z,99623.34
2019-01-25T17:11:20.293Z,99618.20
2019-01-25T17:14:23.233Z,99619.40
2019-01-25T17:17:26.165Z,99615.58
2019-01-25T17:20:29.382Z,99626.34
2019-01-25T17:23:32.350Z,99621.66
2019-01-25T17:26:35.599Z,99618.27
2019-01-25T17:29:38.877Z,99618.08
2019-01-25T17:32:41.990Z,99607.71
2019-01-25T17:35:45.360Z,99611.53
2019-01-25T17:38:48.279Z,99604.33
2019-01-25T17:41:51.196Z,99596.44
2019-01-25T17:44:54.944Z,99589.50
2019-01-25T17:47:57.924Z,99579.94
2019-01-25T17:51:01.343Z,99588.12
2019-01-25T17:54:04.923Z,99585.03
2019-01-25T17:57:07.947Z,99576.45
2019-01-25T18:00:15.892Z,99574.41
2019-01-25T18:03:19.007Z,99570.52
2019-01-25T18:06:23.099Z,99566.64
2019-01-25T18:09:26.007Z,99572.25
2019-01-25T18:12:28.950Z,99567.48
2019-01-25T18:15:32.533Z,99550.84
2019-01-25T18:18:35.553Z,99541.40
2019-01-25T18:21:38.466Z,99535.27
2019-01-25T18:24:41.939Z,99523.62
2019-01-25T18:27:50.188Z,99518.84
2019-01-25T18:31:02.042Z,99525.29
2019-01-25T18:34:06.619Z,99524.45
2019-01-25T18:37:09.549Z,99516.16
2019-01-25T18:40:12.492Z,99494.94
2019-01-25T18:43:17.552Z,99506.66
2019-01-25T18:46:20.689Z,99518.83
2019-01-25T18:49:23.650Z,99516.29
2019-01-25T18:52:26.769Z,99502.02
2019-01-25T18:55:30.063Z,99506.41
2019-01-25T18:58:32.999Z,99514.97
2019-01-25T19:01:35.981Z,99488.13
2019-01-25T19:04:38.888Z,99496.00
2019-01-25T19:07:41.823Z,99486.76
2019-01-25T19:10:44.763Z,99478.20
2019-01-25T19:13:47.688Z,99478.19
2019-01-25T19:16:51.765Z,99471.24
2019-01-25T19:19:55.244Z,99469.56
2019-01-25T19:22:58.251Z,99471.67
2019-01-25T19:26:01.960Z,99468.59
2019-01-25T19:29:05.448Z,99463.45
2019-01-25T19:32:08.364Z,99479.06
2019-01-25T19:35:11.418Z,99467.27
2019-01-25T19:38:18.149Z,99455.99
2019-01-25T19:41:21.176Z,99449.98
2019-01-25T19:44:24.619Z,99439.59
2019-01-25T19:47:27.662Z,99443.30
2019-01-25T19:50:31.129Z,99409.03
2019-01-25T19:53:34.040Z,99430.25
2019-01-25T19:56:37.006Z,99408.78
2019-01-25T19:59:41.026Z,99409.72
2019-01-25T20:02:44.446Z,99411.86
2019-01-25T20:05:47.376Z,99408.38
2019-01-25T20:08:50.305Z,99405.77
2019-01-25T20:11:53.348Z,99407.07
2019-01-25T20:14:56.368Z,99407.94
2019-01-25T20:17:59.344Z,99404.40
2019-01-25T20:21:02.433Z,99399.22
2019-01-25T20:24:05.463Z,99413.55
2019-01-25T20:27:08.409Z,99415.77
2019-01-25T20:30:21.782Z,99413.54
2019-01-25T20:33:24.790Z,99407.48
2019-01-25T20:36:27.872Z,99396.16
2019-01-25T20:39:30.895Z,99398.35
2019-01-25T20:42:33.842Z,99414.87
2019-01-25T20:45:38.500Z,99410.96
2019-01-25T20:48:41.743Z,99409.69
2019-01-25T20:51:44.663Z,99415.76
2019-01-25T20:54:47.947Z,99417.05
2019-01-25T20:57:51.611Z,99419.23
2019-01-25T21:00:54.614Z,99419.16
2019-01-25T21:03:57.655Z,99409.65
2019-01-25T21:07:00.614Z,99410.06
2019-01-25T21:10:06.747Z,99399.25
2019-01-25T21:13:09.672Z,99400.95
2019-01-25T21:16:12.604Z,99391.83
2019-01-25T21:19:15.517Z,99385.31
2019-01-25T21:22:18.442Z,99383.16
2019-01-25T21:25:21.355Z,99380.12
2019-01-25T21:28:24.318Z,99376.64
2019-01-25T21:31:27.239Z,99378.81
2019-01-25T21:34:30.167Z,99385.77
2019-01-25T21:37:33.094Z,99381.86
2019-01-25T21:40:36.337Z,99387.93
2019-01-25T21:43:39.291Z,99391.00
2019-01-25T21:46:42.207Z,99394.01
2019-01-25T21:49:45.288Z,99367.95
2019-01-25T21:52:48.199Z,99371.43
2019-01-25T21:55:51.337Z,99367.51
2019-01-25T21:58:54.382Z,99357.96
2019-01-25T22:01:57.648Z,99354.05
2019-01-25T22:05:00.647Z,99348.83
2019-01-25T22:08:05.605Z,99356.64
2019-01-25T22:11:08.664Z,99357.53
2019-01-25T22:14:11.674Z,99346.66
2019-01-25T22:17:15.032Z,99339.28
2019-01-25T22:20:21.348Z,99344.47
2019-01-25T22:23:24.251Z,99337.08
2019-01-25T22:26:27.174Z,99341.88
2019-01-25T22:29:30.405Z,99334.48
2019-01-25T22:32:33.382Z,99334.92
2019-01-25T22:35:36.586Z,99345.34
2019-01-25T22:38:39.951Z,99341.45
2019-01-25T22:41:42.875Z,99340.55
2019-01-25T22:44:46.134Z,99331.88
2019-01-25T22:47:49.428Z,99332.31
2019-01-25T22:50:52.733Z,99331.44
2019-01-25T22:53:56.329Z,99337.06
2019-01-25T22:56:59.836Z,99333.19
2019-01-25T23:00:09.301Z,99322.72
2019-01-25T23:03:14.150Z,99319.68
2019-01-25T23:06:55.812Z,99319.69
2019-01-25T23:10:03.436Z,99323.60
2019-01-25T23:13:07.437Z,99319.25
2019-01-25T23:16:10.355Z,99310.07
2019-01-25T23:19:13.386Z,99313.58
2019-01-25T23:22:16.595Z,99312.67
2019-01-25T23:25:19.539Z,99314.38
2019-01-25T23:28:23.199Z,99311.79
2019-01-25T23:31:26.142Z,99310.94
2019-01-25T23:34:29.059Z,99296.48
2019-01-25T23:37:32.057Z,99325.28
2019-01-25T23:40:34.988Z,99305.58
2019-01-25T23:43:38.242Z,99303.42
2019-01-25T23:46:41.179Z,99309.99
2019-01-25T23:49:44.786Z,99298.17
2019-01-25T23:52:48.025Z,99299.56
2019-01-25T23:55:51.366Z,99299.16
2019-01-25T23:58:54.271Z,99298.75
